Time;durP1;ratioP1;P1;durP2;ratioP2;P2;SDS_P1;SDS_P2;PMS_P1;PMS_P2;Temp;Humidity;BMP_temperature;BMP_pressure;BME280_temperature;BME280_humidity;BME280_pressure;Samples;Min_cycle;Max_cycle;Signal;HPM_P1;HPM_P2
2021/08/07 00:00:40;;;;;;;5.63;5.23;;;;;;;19.09;67.22;100062.94;5061453;28;20842;-71
2021/08/07 00:03:06;;;;;;;6.13;5.53;;;;;;;19.30;66.49;100063.91;5078506;28;20177;-70
2021/08/07 00:05:31;;;;;;;5.27;4.87;;;;;;;19.63;65.33;100052.09;5063510;28;20539;-71
2021/08/07 00:07:57;;;;;;;6.57;5.83;;;;;;;19.64;65.43;100061.75;5079303;28;20212;-70
2021/08/07 00:10:24;;;;;;;6.37;5.60;;;;;;;19.56;65.22;100061.19;5079455;28;20189;-70
2021/08/07 00:12:50;;;;;;;6.00;5.50;;;;;;;19.49;65.60;100064.06;5066003;28;20185;-71
2021/08/07 00:15:15;;;;;;;6.43;5.83;;;;;;;19.68;65.17;100056.28;5060180;28;20507;-71
2021/08/07 00:17:41;;;;;;;6.13;5.53;;;;;;;19.53;65.72;100056.91;5076901;28;20510;-72
2021/08/07 00:20:07;;;;;;;6.13;5.53;;;;;;;19.51;65.37;100058.72;5066324;28;20451;-72
2021/08/07 00:22:33;;;;;;;6.90;6.30;;;;;;;19.41;65.58;100057.38;5076910;28;20177;-72
2021/08/07 00:24:58;;;;;;;6.60;6.00;;;;;;;19.72;64.89;100050.91;5061046;28;20477;-71
2021/08/07 00:27:24;;;;;;;6.77;6.27;;;;;;;19.38;65.97;100058.34;5064476;28;20217;-72
2021/08/07 00:29:49;;;;;;;6.80;6.20;;;;;;;19.58;65.28;100054.06;5070659;28;20189;-72
2021/08/07 00:32:14;;;;;;;6.40;5.90;;;;;;;19.63;65.33;100049.47;5062921;28;20231;-72
2021/08/07 00:34:40;;;;;;;7.03;6.43;;;;;;;19.51;65.40;100048.16;5080579;28;20260;-72
2021/08/07 00:37:06;;;;;;;6.87;6.17;;;;;;;19.59;65.37;100055.78;5080561;28;20611;-72
2021/08/07 00:39:32;;;;;;;7.13;6.63;;;;;;;19.64;65.32;100051.19;5064238;28;20211;-73
2021/08/07 00:41:57;;;;;;;6.83;6.33;;;;;;;19.40;66.13;100048.56;5059972;28;20511;-72
2021/08/07 00:44:23;;;;;;;7.10;6.50;;;;;;;19.00;67.17;100055.34;5059787;28;20189;-73
2021/08/07 00:46:48;;;;;;;8.07;6.60;;;;;;;18.94;67.80;100059.06;5066245;28;20418;-73
2021/08/07 00:49:13;;;;;;;6.80;6.30;;;;;;;19.16;66.96;100048.56;5066616;28;20185;-72
2021/08/07 00:51:39;;;;;;;7.67;7.07;;;;;;;19.11;66.90;100050.53;5060774;28;20216;-72
2021/08/07 00:54:04;;;;;;;7.37;6.77;;;;;;;19.06;67.46;100055.09;5059992;28;20209;-73
2021/08/07 00:56:29;;;;;;;6.70;6.00;;;;;;;19.33;66.72;100055.84;5060426;28;20226;-73
2021/08/07 00:58:55;;;;;;;6.70;6.10;;;;;;;19.27;66.45;100055.25;5060174;28;20189;-72
2021/08/07 01:01:20;;;;;;;7.40;6.70;;;;;;;19.11;67.03;100060.25;5062423;28;20254;-72
2021/08/07 01:03:51;;;;;;;7.40;6.80;;;;;;;18.90;68.18;100059.22;5059293;28;20169;-73
2021/08/07 01:06:54;;;;;;;7.47;6.77;;;;;;;18.73;68.42;100052.72;5059531;28;20551;-74
2021/08/07 01:09:46;;;;;;;7.37;6.67;;;;;;;18.89;67.91;100049.56;5071123;28;20486;-73
2021/08/07 01:12:19;;;;;;;6.40;5.80;;;;;;;18.55;68.87;100046.34;5059864;28;20623;-71
2021/08/07 01:14:45;;;;;;;7.97;7.20;;;;;;;18.67;68.35;100037.09;5059933;28;20424;-72
2021/08/07 01:17:16;;;;;;;7.37;6.83;;;;;;;18.79;68.39;100041.94;5058488;28;22161;-72
2021/08/07 01:20:03;;;;;;;6.87;6.17;;;;;;;18.66;68.30;100048.59;5061592;28;20429;-72
2021/08/07 01:22:38;;;;;;;8.00;6.90;;;;;;;18.63;68.55;100048.69;5059048;28;20407;-72
2021/08/07 01:25:07;;;;;;;9.47;8.53;;;;;;;18.81;68.01;100042.75;5059003;28;20426;-73
2021/08/07 01:27:36;;;;;;;7.60;6.57;;;;;;;18.38;69.24;100049.53;5060625;28;20474;-72
2021/08/07 01:30:03;;;;;;;6.97;6.30;;;;;;;18.52;69.04;100034.09;5075187;28;20435;-72
2021/08/07 01:32:31;;;;;;;7.07;6.57;;;;;;;18.37;69.28;100049.59;5079549;28;20439;-73
2021/08/07 01:34:58;;;;;;;8.20;7.40;;;;;;;18.16;70.01;100041.47;5079024;28;20460;-72
2021/08/07 01:37:23;;;;;;;7.53;6.83;;;;;;;18.47;69.32;100048.38;5076360;28;20454;-72
2021/08/07 01:39:54;;;;;;;6.83;6.17;;;;;;;18.39;69.62;100046.00;5058952;28;20427;-72
2021/08/07 01:42:20;;;;;;;7.23;6.60;;;;;;;18.48;69.00;100055.34;5060273;28;20564;-71
2021/08/07 01:44:45;;;;;;;7.13;6.43;;;;;;;18.55;68.95;100050.72;5059336;28;20554;-72
2021/08/07 01:47:23;;;;;;;7.30;6.60;;;;;;;18.33;70.01;100047.06;5059672;28;20255;-72
2021/08/07 01:49:55;;;;;;;7.00;6.40;;;;;;;18.38;69.63;100044.25;5058504;28;20181;-71
2021/08/07 01:52:26;;;;;;;8.30;7.43;;;;;;;18.32;69.79;100042.69;5058444;28;20689;-73
2021/08/07 01:54:57;;;;;;;7.37;6.77;;;;;;;18.30;69.80;100043.66;5059098;28;20408;-71
2021/08/07 01:57:25;;;;;;;8.10;7.30;;;;;;;18.23;69.95;100043.00;5058371;28;20472;-72
2021/08/07 01:59:51;;;;;;;8.00;6.93;;;;;;;18.23;70.33;100035.09;5059263;28;20436;-71
2021/08/07 02:02:17;;;;;;;8.30;6.70;;;;;;;18.45;69.28;100045.75;5058494;28;20390;-72
2021/08/07 02:04:42;;;;;;;7.13;6.53;;;;;;;17.84;71.46;100044.19;5065994;28;20820;-73
2021/08/07 02:07:08;;;;;;;7.73;7.10;;;;;;;18.29;70.01;100034.00;5079301;28;20278;-72
2021/08/07 02:09:34;;;;;;;7.73;6.50;;;;;;;18.18;70.21;100039.63;5062761;28;20188;-72
2021/08/07 02:12:00;;;;;;;7.63;7.03;;;;;;;18.16;70.40;100047.63;5058553;28;20420;-71
2021/08/07 02:14:27;;;;;;;8.53;7.50;;;;;;;18.28;70.43;100043.72;5058827;28;20166;-74
2021/08/07 02:16:52;;;;;;;10.40;7.90;;;;;;;18.15;70.48;100042.38;5058286;28;20174;-72
2021/08/07 02:19:18;;;;;;;10.40;7.60;;;;;;;17.66;72.26;100053.56;5064548;28;20450;-73
2021/08/07 02:21:44;;;;;;;7.73;7.03;;;;;;;17.94;71.64;100041.31;5078041;28;20177;-72
2021/08/07 02:24:09;;;;;;;7.70;7.00;;;;;;;18.44;69.89;100033.50;5077803;28;20235;-72
2021/08/07 02:26:35;;;;;;;7.90;7.20;;;;;;;17.95;70.47;100033.34;5067767;28;20428;-73
2021/08/07 02:29:01;;;;;;;8.73;7.70;;;;;;;18.24;70.70;100028.00;5059817;28;20213;-72
2021/08/07 02:31:26;;;;;;;8.60;7.80;;;;;;;18.30;70.25;100026.03;5057756;28;20570;-73
2021/08/07 02:33:53;;;;;;;8.50;7.80;;;;;;;18.31;70.04;100026.91;5057951;28;20570;-72
2021/08/07 02:36:18;;;;;;;7.13;6.43;;;;;;;17.99;71.24;100036.75;5057717;28;20169;-72
2021/08/07 02:38:44;;;;;;;8.73;7.80;;;;;;;17.89;71.45;100030.88;5061653;28;20436;-72
2021/08/07 02:41:12;;;;;;;8.73;7.83;;;;;;;17.98;71.16;100029.75;5058561;28;20223;-72
2021/08/07 02:43:37;;;;;;;9.63;8.50;;;;;;;18.06;71.03;100029.50;5057812;28;20183;-71
2021/08/07 02:46:02;;;;;;;7.80;7.10;;;;;;;18.07;70.83;100032.09;5057619;28;20670;-73
2021/08/07 02:48:28;;;;;;;7.80;7.17;;;;;;;18.16;70.93;100023.88;5064531;28;20204;-73
2021/08/07 02:50:54;;;;;;;8.73;8.03;;;;;;;18.25;70.07;100027.13;5064538;28;20182;-72
2021/08/07 02:53:19;;;;;;;7.03;6.53;;;;;;;17.85;71.73;100032.75;5060089;28;20279;-72
2021/08/07 02:55:45;;;;;;;8.00;7.20;;;;;;;18.26;70.55;100018.28;5057702;28;20185;-71
2021/08/07 02:58:11;;;;;;;8.37;7.17;;;;;;;17.94;71.45;100023.72;5059820;28;20215;-70
2021/08/07 03:00:37;;;;;;;9.07;8.37;;;;;;;18.03;71.54;100030.47;5057685;28;20186;-72
2021/08/07 03:03:03;;;;;;;10.80;8.60;;;;;;;18.30;70.19;100022.53;5058907;28;20230;-73
2021/08/07 03:05:28;;;;;;;9.03;8.03;;;;;;;18.09;71.18;100018.84;5058253;28;20427;-73
2021/08/07 03:07:54;;;;;;;11.63;10.63;;;;;;;17.92;71.85;100019.41;5058903;28;20450;-73
2021/08/07 03:10:19;;;;;;;10.53;9.50;;;;;;;18.15;71.04;100016.84;5060114;28;20194;-72
2021/08/07 03:12:46;;;;;;;11.07;10.07;;;;;;;18.15;70.91;100011.59;5078156;28;20180;-72
2021/08/07 03:15:12;;;;;;;9.73;8.93;;;;;;;18.00;71.12;100012.09;5078144;28;20173;-72
2021/08/07 03:17:39;;;;;;;11.70;10.27;;;;;;;18.21;70.80;100015.78;5077637;28;20403;-72
2021/08/07 03:20:05;;;;;;;9.60;8.80;;;;;;;18.39;70.18;100008.16;5058074;28;20497;-73
2021/08/07 03:22:31;;;;;;;11.13;10.03;;;;;;;18.28;70.27;100014.69;5057897;28;20462;-74
2021/08/07 03:24:57;;;;;;;10.90;10.00;;;;;;;18.33;70.48;100014.50;5058015;28;20440;-72
2021/08/07 03:27:22;;;;;;;10.40;9.50;;;;;;;18.27;70.71;100005.03;5076451;28;20227;-74
2021/08/07 03:29:47;;;;;;;14.07;10.13;;;;;;;18.18;71.00;100014.16;5071569;28;20271;-74
2021/08/07 03:32:13;;;;;;;10.27;9.37;;;;;;;18.34;70.46;100021.53;5078381;28;20188;-73
2021/08/07 03:34:38;;;;;;;12.33;10.30;;;;;;;18.41;70.36;100020.38;5075640;28;20180;-74
2021/08/07 03:37:03;;;;;;;10.77;9.87;;;;;;;17.90;72.15;100018.53;5068641;28;20181;-73
2021/08/07 03:39:29;;;;;;;11.67;10.57;;;;;;;18.42;70.09;100016.84;5061068;28;20201;-73
2021/08/07 03:41:54;;;;;;;10.97;10.07;;;;;;;18.38;70.04;100019.66;5061783;28;20527;-74
2021/08/07 03:44:19;;;;;;;11.40;10.40;;;;;;;18.07;71.86;100026.81;5061474;28;20192;-74
2021/08/07 03:46:45;;;;;;;12.20;10.73;;;;;;;18.67;69.90;100023.91;5062038;28;20166;-72
2021/08/07 03:49:10;;;;;;;11.43;10.30;;;;;;;18.55;69.75;100022.56;5063513;28;20217;-74
2021/08/07 03:51:35;;;;;;;10.60;9.70;;;;;;;18.44;70.19;100024.69;5061922;28;20173;-73
2021/08/07 03:54:00;;;;;;;11.50;10.30;;;;;;;18.51;69.86;100021.81;5061854;28;20169;-73
2021/08/07 03:56:26;;;;;;;12.50;11.30;;;;;;;18.48;70.15;100026.31;5068567;28;20267;-72
2021/08/07 03:58:51;;;;;;;12.00;10.90;;;;;;;18.47;69.95;100036.03;5078139;28;20268;-73
2021/08/07 04:01:17;;;;;;;11.43;10.43;;;;;;;18.49;70.24;100026.25;5080056;28;20543;-72
2021/08/07 04:03:42;;;;;;;11.70;10.67;;;;;;;18.75;69.73;100024.47;5071838;28;20200;-72
2021/08/07 04:06:07;;;;;;;11.33;10.33;;;;;;;18.93;68.96;100033.56;5061363;28;20218;-72
2021/08/07 04:08:33;;;;;;;11.30;9.40;;;;;;;18.82;69.00;100025.13;5062857;28;20193;-72
2021/08/07 04:10:59;;;;;;;11.10;9.97;;;;;;;18.49;69.56;100023.63;5080565;28;20188;-72
2021/08/07 04:13:24;;;;;;;11.33;10.23;;;;;;;18.59;70.01;100023.31;5081210;28;20425;-73
2021/08/07 04:15:49;;;;;;;10.47;9.50;;;;;;;18.68;69.62;100028.28;5081852;28;20256;-74
2021/08/07 04:18:14;;;;;;;9.80;9.00;;;;;;;18.94;68.84;100029.13;5080552;28;20164;-72
2021/08/07 04:20:40;;;;;;;10.90;9.77;;;;;;;18.10;71.27;100029.34;5062051;28;20197;-72
2021/08/07 04:23:05;;;;;;;11.20;9.63;;;;;;;18.46;70.58;100031.66;5060591;28;20229;-73
2021/08/07 04:25:31;;;;;;;10.00;9.10;;;;;;;18.94;68.62;100034.44;5061072;28;20169;-71
2021/08/07 04:27:56;;;;;;;10.87;9.87;;;;;;;18.73;69.09;100026.34;5060938;28;20246;-71
2021/08/07 04:30:21;;;;;;;10.90;9.90;;;;;;;18.80;69.02;100041.03;5062071;28;20193;-72
2021/08/07 04:32:47;;;;;;;10.93;9.90;;;;;;;18.94;68.40;100031.78;5060676;28;20244;-72
2021/08/07 04:35:12;;;;;;;9.40;8.63;;;;;;;18.73;69.45;100028.13;5061430;28;20506;-72
2021/08/07 04:37:47;;;;;;;11.90;10.80;;;;;;;18.85;68.90;100033.81;5060815;28;20586;-72
2021/08/07 04:40:13;;;;;;;11.97;10.90;;;;;;;19.42;67.07;100036.16;5062016;28;20220;-72
2021/08/07 04:42:38;;;;;;;11.30;10.20;;;;;;;19.02;68.00;100042.94;5060950;28;20425;-71
2021/08/07 04:45:04;;;;;;;11.93;10.67;;;;;;;19.15;67.71;100033.63;5078984;28;20451;-71
2021/08/07 04:47:29;;;;;;;11.37;10.30;;;;;;;19.47;66.87;100046.53;5080626;28;20212;-71
2021/08/07 04:49:55;;;;;;;11.47;10.37;;;;;;;19.16;67.97;100042.44;5077452;28;20564;-71
2021/08/07 04:52:20;;;;;;;10.97;10.00;;;;;;;19.14;67.76;100049.53;5069493;28;20239;-71
2021/08/07 04:54:45;;;;;;;11.60;10.60;;;;;;;19.30;67.30;100048.03;5061757;28;20189;-71
2021/08/07 04:57:11;;;;;;;14.60;10.70;;;;;;;18.90;68.71;100046.88;5061056;28;20173;-71
2021/08/07 04:59:36;;;;;;;11.87;10.67;;;;;;;19.41;67.34;100042.34;5062165;28;20200;-71
2021/08/07 05:02:01;;;;;;;10.67;9.67;;;;;;;18.82;69.55;100039.22;5063857;28;20238;-72
2021/08/07 05:04:27;;;;;;;10.77;9.67;;;;;;;18.97;68.53;100039.59;5080760;28;20172;-71
2021/08/07 05:06:52;;;;;;;9.87;8.97;;;;;;;19.49;66.46;100035.00;5080166;28;20435;-71
2021/08/07 05:09:17;;;;;;;9.90;9.03;;;;;;;19.13;67.85;100043.41;5071039;28;20228;-71
2021/08/07 05:11:43;;;;;;;11.17;10.07;;;;;;;19.55;66.40;100040.97;5062238;28;20182;-72
2021/08/07 05:14:08;;;;;;;9.50;8.80;;;;;;;20.06;64.97;100042.47;5059994;28;20189;-72
2021/08/07 05:16:33;;;;;;;9.90;9.00;;;;;;;19.74;65.57;100046.38;5060268;28;20178;-71
2021/08/07 05:18:59;;;;;;;10.53;9.43;;;;;;;19.47;66.33;100050.06;5062602;28;20509;-71
2021/08/07 05:21:24;;;;;;;10.17;9.13;;;;;;;19.58;65.78;100040.84;5064077;28;20477;-73
2021/08/07 05:23:49;;;;;;;9.43;8.57;;;;;;;19.77;65.90;100044.50;5062278;28;20241;-72
2021/08/07 05:26:15;;;;;;;11.20;9.60;;;;;;;19.96;65.30;100049.94;5060369;28;20225;-73
2021/08/07 05:28:41;;;;;;;10.07;9.10;;;;;;;20.07;65.10;100046.84;5059880;28;20216;-72
2021/08/07 05:31:06;;;;;;;10.80;9.00;;;;;;;20.42;63.36;100048.94;5059587;28;20173;-73
2021/08/07 05:33:31;;;;;;;8.30;7.50;;;;;;;20.88;61.66;100044.34;5062122;28;20443;-73
2021/08/07 05:35:57;;;;;;;8.80;7.80;;;;;;;21.28;60.76;100047.81;5059763;28;20196;-74
2021/08/07 05:38:22;;;;;;;9.10;8.30;;;;;;;20.81;61.87;100045.53;5059732;28;20178;-74
2021/08/07 05:40:47;;;;;;;9.10;7.17;;;;;;;20.70;62.20;100043.34;5060256;28;20169;-73
2021/08/07 05:43:13;;;;;;;7.97;7.17;;;;;;;21.09;60.31;100047.81;5061081;28;20267;-74
2021/08/07 05:45:38;;;;;;;8.80;7.10;;;;;;;21.53;59.21;100044.09;5059655;28;20473;-74
2021/08/07 05:48:04;;;;;;;8.00;7.30;;;;;;;20.47;62.38;100052.25;5060181;28;20204;-75
2021/08/07 05:50:29;;;;;;;8.47;7.50;;;;;;;20.84;61.91;100045.41;5071187;28;20178;-74
2021/08/07 05:52:54;;;;;;;7.80;7.00;;;;;;;20.90;61.28;100053.06;5063138;28;20250;-75
2021/08/07 05:55:20;;;;;;;9.37;8.47;;;;;;;20.68;62.32;100054.03;5059859;28;20240;-74
2021/08/07 05:57:45;;;;;;;8.73;7.13;;;;;;;19.92;64.38;100052.78;5059344;28;20244;-74
2021/08/07 06:00:11;;;;;;;9.10;7.60;;;;;;;20.17;63.64;100042.03;5059818;28;22217;-74
2021/08/07 06:02:36;;;;;;;8.13;7.33;;;;;;;20.65;61.79;100040.03;5062393;28;20490;-72
2021/08/07 06:05:02;;;;;;;8.90;7.20;;;;;;;20.22;63.23;100037.41;5070032;28;20781;-74
2021/08/07 06:07:27;;;;;;;8.37;7.30;;;;;;;20.32;62.78;100038.78;5059077;28;20228;-74
2021/08/07 06:09:52;;;;;;;7.57;6.80;;;;;;;20.83;61.59;100031.28;5062583;28;20180;-73
2021/08/07 06:12:18;;;;;;;8.13;7.43;;;;;;;21.32;59.67;100038.81;5059892;28;20435;-72
2021/08/07 06:14:44;;;;;;;7.60;6.90;;;;;;;21.36;59.58;100035.09;5068831;28;20191;-71
2021/08/07 06:17:11;;;;;;;8.40;6.80;;;;;;;22.19;57.30;100040.88;5060879;28;20183;-71
2021/08/07 06:19:37;;;;;;;7.27;6.50;;;;;;;21.96;57.28;100031.41;5075340;28;20427;-71
2021/08/07 06:22:02;;;;;;;7.23;6.50;;;;;;;22.90;54.74;100030.25;5071861;28;20850;-70
2021/08/07 06:24:28;;;;;;;6.70;6.13;;;;;;;23.39;53.37;100030.25;5070487;28;20221;-70
2021/08/07 06:26:54;;;;;;;7.03;6.30;;;;;;;23.83;52.38;100032.22;5077658;28;20453;-71
2021/08/07 06:29:19;;;;;;;6.33;5.73;;;;;;;24.07;51.53;100029.13;5079214;28;20415;-72
2021/08/07 06:31:44;;;;;;;5.80;5.40;;;;;;;22.98;54.13;100039.50;5071491;28;20196;-72
2021/08/07 06:34:10;;;;;;;7.10;6.17;;;;;;;22.54;55.80;100038.25;5059059;28;20174;-71
2021/08/07 06:36:36;;;;;;;6.73;6.13;;;;;;;21.47;58.64;100039.91;5065840;28;20474;-71
2021/08/07 06:39:02;;;;;;;7.40;6.70;;;;;;;21.50;58.23;100047.72;5074518;28;20434;-72
2021/08/07 06:41:27;;;;;;;6.77;6.17;;;;;;;21.28;59.55;100054.94;5076855;28;20203;-71
2021/08/07 06:43:52;;;;;;;7.77;6.63;;;;;;;21.47;59.33;100060.25;5078813;28;20498;-73
2021/08/07 06:46:18;;;;;;;8.00;6.10;;;;;;;22.00;57.54;100061.28;5073563;28;20195;-72
2021/08/07 06:48:43;;;;;;;7.00;6.30;;;;;;;21.33;59.35;100068.84;5075028;28;20200;-73
2021/08/07 06:51:09;;;;;;;6.80;6.10;;;;;;;20.34;61.70;100070.47;5077100;28;20180;-72
2021/08/07 06:53:34;;;;;;;7.13;6.43;;;;;;;20.60;61.27;100068.50;5073756;28;20234;-72
2021/08/07 06:55:59;;;;;;;7.40;6.70;;;;;;;20.95;60.43;100072.28;5065625;28;20185;-73
2021/08/07 06:58:25;;;;;;;7.47;6.67;;;;;;;20.68;61.73;100069.03;5078915;28;20276;-71
2021/08/07 07:00:50;;;;;;;7.23;6.67;;;;;;;20.55;62.19;100070.47;5077285;28;20195;-70
2021/08/07 07:03:16;;;;;;;7.67;6.87;;;;;;;20.64;61.53;100067.44;5067765;28;20551;-72
2021/08/07 07:05:41;;;;;;;7.83;7.23;;;;;;;20.33;62.43;100074.03;5061991;28;20181;-73
2021/08/07 07:08:07;;;;;;;7.83;7.10;;;;;;;20.65;61.69;100067.38;5057097;28;20478;-73
2021/08/07 07:10:32;;;;;;;8.00;7.17;;;;;;;20.77;61.40;100071.31;5058353;28;20303;-72
2021/08/07 07:13:00;;;;;;;7.80;7.10;;;;;;;20.40;61.72;100070.19;5063204;28;20172;-71
2021/08/07 07:15:27;;;;;;;8.20;6.77;;;;;;;20.44;62.54;100073.56;5077784;28;20177;-72
2021/08/07 07:17:53;;;;;;;13.03;7.70;;;;;;;20.28;62.31;100076.88;5070548;28;20439;-72
2021/08/07 07:20:20;;;;;;;7.37;6.73;;;;;;;21.04;60.63;100073.69;5057779;28;20424;-71
2021/08/07 07:22:46;;;;;;;7.97;7.27;;;;;;;20.87;61.73;100074.41;5057438;28;20264;-71
2021/08/07 07:25:13;;;;;;;6.93;6.43;;;;;;;20.82;61.48;100069.34;5057523;28;20518;-71
2021/08/07 07:27:38;;;;;;;7.13;6.43;;;;;;;20.96;61.55;100071.38;5064009;28;20254;-70
2021/08/07 07:30:05;;;;;;;7.50;6.73;;;;;;;21.30;60.19;100074.28;5077748;28;20419;-70
2021/08/07 07:32:31;;;;;;;7.13;6.43;;;;;;;21.22;60.12;100077.28;5055863;28;20195;-71
2021/08/07 07:34:57;;;;;;;8.70;6.70;;;;;;;22.16;57.53;100067.59;5058100;28;20717;-70
2021/08/07 07:37:22;;;;;;;7.33;6.63;;;;;;;22.26;57.43;100065.31;5057575;28;20204;-72
2021/08/07 07:39:50;;;;;;;6.60;5.90;;;;;;;21.07;61.13;100073.53;5056766;28;20511;-71
2021/08/07 07:42:16;;;;;;;8.43;6.37;;;;;;;21.75;59.50;100072.25;5057429;28;20166;-71
2021/08/07 07:44:42;;;;;;;6.97;6.27;;;;;;;21.56;59.35;100074.91;5057256;28;20438;-70
2021/08/07 07:47:07;;;;;;;6.67;6.03;;;;;;;22.91;56.02;100074.47;5062983;28;20192;-71
2021/08/07 07:49:32;;;;;;;9.87;7.30;;;;;;;23.10;54.99;100072.56;5077576;28;20219;-75
2021/08/07 07:51:58;;;;;;;6.40;5.80;;;;;;;23.31;53.86;100075.91;5069777;28;20181;-73
2021/08/07 07:54:24;;;;;;;6.43;5.67;;;;;;;23.86;52.82;100079.97;5077235;28;20184;-75
2021/08/07 07:56:50;;;;;;;7.30;6.60;;;;;;;23.10;54.69;100079.69;5077043;28;20165;-73
2021/08/07 07:59:15;;;;;;;5.77;5.30;;;;;;;23.84;52.96;100076.53;5076359;28;20214;-77
2021/08/07 08:01:41;;;;;;;7.13;5.90;;;;;;;23.93;52.68;100075.19;5057743;28;20443;-71
2021/08/07 08:04:07;;;;;;;6.23;5.73;;;;;;;22.48;55.79;100078.41;5056469;28;20220;-70
2021/08/07 08:06:32;;;;;;;6.13;5.53;;;;;;;22.98;54.44;100076.72;5065858;28;20427;-70
2021/08/07 08:08:57;;;;;;;5.63;5.13;;;;;;;21.82;57.67;100077.16;5076432;28;20212;-69
2021/08/07 08:11:24;;;;;;;5.70;5.27;;;;;;;22.78;55.11;100067.13;5076919;28;20177;-70
2021/08/07 08:13:49;;;;;;;5.60;5.10;;;;;;;23.80;52.01;100064.34;5077237;28;20501;-69
2021/08/07 08:16:15;;;;;;;6.07;5.17;;;;;;;25.77;47.19;100060.63;5075470;28;20454;-70
2021/08/07 08:18:40;;;;;;;5.00;4.50;;;;;;;26.08;46.03;100058.66;5063997;28;20173;-70
2021/08/07 08:21:06;;;;;;;6.73;4.70;;;;;;;25.85;47.10;100053.81;5076478;28;20181;-72
2021/08/07 08:23:31;;;;;;;6.47;5.77;;;;;;;25.65;47.25;100062.25;5076898;28;20228;-71
2021/08/07 08:25:57;;;;;;;6.40;5.00;;;;;;;26.26;45.94;100056.56;5078565;28;20189;-72
2021/08/07 08:28:23;;;;;;;4.50;4.20;;;;;;;26.62;43.92;100053.19;5079539;28;20570;-74
2021/08/07 08:30:48;;;;;;;5.77;4.67;;;;;;;27.28;42.88;100046.88;5080750;28;20165;-73
2021/08/07 08:33:14;;;;;;;4.97;4.20;;;;;;;27.79;41.39;100045.91;5070570;28;20557;-77
2021/08/07 08:35:41;;;;;;;8.80;4.53;;;;;;;26.36;43.49;100044.28;5080697;28;20229;-74
2021/08/07 08:38:14;;;;;;;5.30;4.07;;;;;;;27.39;41.67;100050.53;5063301;28;20193;-71
2021/08/07 08:40:40;;;;;;;4.53;4.10;;;;;;;28.39;40.36;100052.19;5073517;28;20447;-72
2021/08/07 08:43:05;;;;;;;5.73;4.20;;;;;;;28.48;39.60;100043.44;5067148;28;20431;-72
2021/08/07 08:45:31;;;;;;;4.60;3.80;;;;;;;27.86;40.27;100056.06;5079681;28;20903;-72
2021/08/07 08:47:56;;;;;;;10.10;3.50;;;;;;;27.92;40.86;100054.75;5077061;28;20590;-76
2021/08/07 08:50:22;;;;;;;6.83;3.43;;;;;;;27.96;40.65;100058.06;5080326;28;20255;-71
2021/08/07 08:52:49;;;;;;;3.53;3.23;;;;;;;28.21;38.71;100052.59;5080206;28;20169;-77
2021/08/07 08:55:15;;;;;;;5.03;3.47;;;;;;;27.73;40.34;100055.25;5080636;28;20165;-73
2021/08/07 08:57:40;;;;;;;4.00;3.03;;;;;;;27.07;41.94;100052.78;5070464;28;20869;-76
2021/08/07 09:00:07;;;;;;;4.10;3.63;;;;;;;25.76;44.05;100056.22;5075856;28;20203;-72
2021/08/07 09:02:32;;;;;;;6.07;3.80;;;;;;;25.52;45.09;100057.72;5083431;28;20184;-73
2021/08/07 09:04:58;;;;;;;3.40;3.10;;;;;;;25.03;46.81;100060.75;5068053;28;20826;-76
2021/08/07 09:07:24;;;;;;;5.57;3.37;;;;;;;25.08;46.48;100064.00;5077887;28;20233;-74
2021/08/07 09:09:54;;;;;;;3.80;3.30;;;;;;;24.37;48.09;100058.44;5063873;28;20181;-74
2021/08/07 09:12:40;;;;;;;4.87;3.70;;;;;;;24.48;47.60;100059.63;5064176;28;20189;-75
2021/08/07 09:15:25;;;;;;;4.90;4.23;;;;;;;24.72;46.89;100062.63;5052241;28;20692;-76
2021/08/07 09:17:51;;;;;;;3.50;3.20;;;;;;;24.61;47.05;100059.72;5060211;28;20412;-74
2021/08/07 09:20:27;;;;;;;3.53;3.23;;;;;;;24.69;46.37;100060.16;5068425;28;20444;-76
2021/08/07 09:22:54;;;;;;;3.70;3.20;;;;;;;25.09;46.28;100063.06;5075058;28;20239;-74
2021/08/07 09:25:23;;;;;;;5.57;3.57;;;;;;;25.03;46.92;100060.75;5062328;28;20539;-65
2021/08/07 09:27:52;;;;;;;4.17;3.60;;;;;;;25.79;45.56;100053.34;5051425;28;20471;-70
2021/08/07 09:30:17;;;;;;;6.10;3.73;;;;;;;25.28;46.03;100056.59;5065328;28;20570;-68
2021/08/07 09:32:58;;;;;;;5.33;3.40;;;;;;;25.70;44.85;100045.00;5064790;28;20543;-71
2021/08/07 09:35:30;;;;;;;3.63;3.23;;;;;;;26.51;43.04;100039.72;5060232;28;20177;-70
2021/08/07 09:38:23;;;;;;;3.97;3.57;;;;;;;27.71;40.47;100041.13;5059385;28;20435;-70
2021/08/07 09:40:52;;;;;;;4.77;3.70;;;;;;;26.65;42.49;100028.06;5064525;28;20460;-70
2021/08/07 09:43:19;;;;;;;4.00;3.60;;;;;;;25.64;43.71;100031.19;5059276;28;20519;-73
2021/08/07 09:45:57;;;;;;;4.00;3.70;;;;;;;25.56;44.78;100031.69;5059080;28;20434;-72
2021/08/07 09:48:29;;;;;;;3.87;3.57;;;;;;;24.98;45.79;100036.22;5058926;28;20478;-71
2021/08/07 09:50:56;;;;;;;3.50;3.20;;;;;;;25.48;46.66;100029.50;5062643;28;20436;-65
2021/08/07 09:53:27;;;;;;;3.97;3.50;;;;;;;23.92;49.12;100043.31;5058840;28;20797;-73
2021/08/07 09:56:05;;;;;;;4.13;3.73;;;;;;;23.97;49.49;100043.94;5058978;28;20434;-73
2021/08/07 09:58:30;;;;;;;5.50;3.60;;;;;;;23.61;50.39;100043.25;5058379;28;20542;-72
2021/08/07 10:00:56;;;;;;;4.90;3.40;;;;;;;24.62;48.23;100032.16;5074566;28;20463;-69
2021/08/07 10:03:23;;;;;;;4.20;3.50;;;;;;;26.07;44.61;100032.88;5073781;28;20545;-69
2021/08/07 10:05:49;;;;;;;4.43;3.60;;;;;;;25.54;45.74;100031.78;5073073;28;20184;-69
2021/08/07 10:08:15;;;;;;;4.30;3.57;;;;;;;25.28;46.03;100036.09;5079471;28;20462;-69
2021/08/07 10:10:41;;;;;;;5.07;3.50;;;;;;;25.44;46.31;100030.66;5059009;28;20416;-71
2021/08/07 10:13:08;;;;;;;3.97;3.40;;;;;;;27.38;42.23;100031.91;5062200;28;20196;-70
2021/08/07 10:15:35;;;;;;;4.10;3.67;;;;;;;27.47;41.36;100023.22;5070862;28;20467;-71
2021/08/07 10:18:00;;;;;;;3.83;3.53;;;;;;;27.39;41.49;100017.56;5057072;28;20416;-70
2021/08/07 10:20:27;;;;;;;4.47;3.67;;;;;;;27.20;42.12;100013.50;5059341;28;20507;-72
2021/08/07 10:22:52;;;;;;;4.23;3.57;;;;;;;26.01;44.32;100015.44;5057379;28;20494;-69
2021/08/07 10:25:18;;;;;;;4.70;3.40;;;;;;;27.53;41.22;100012.03;5057993;28;20511;-73
2021/08/07 10:27:44;;;;;;;5.70;3.43;;;;;;;29.03;38.35;99997.19;5058274;28;20293;-73
2021/08/07 10:30:13;;;;;;;4.20;3.73;;;;;;;29.60;37.73;99991.75;5074224;28;20208;-72
2021/08/07 10:32:43;;;;;;;3.53;3.23;;;;;;;27.80;40.58;99996.75;5075884;28;20922;-76
2021/08/07 10:35:10;;;;;;;4.43;3.70;;;;;;;28.36;39.30;100004.16;5060872;28;20456;-76
2021/08/07 10:37:36;;;;;;;5.47;3.60;;;;;;;27.89;40.63;99999.59;5058145;28;20444;-71
2021/08/07 10:40:03;;;;;;;4.73;3.30;;;;;;;29.01;38.18;100000.00;5057883;28;20436;-72
2021/08/07 10:42:30;;;;;;;4.20;3.53;;;;;;;26.18;43.40;99998.28;5058297;28;20186;-71
2021/08/07 10:44:55;;;;;;;4.87;4.00;;;;;;;26.30;43.87;99993.94;5060388;28;20439;-71
2021/08/07 10:47:41;;;;;;;5.13;3.93;;;;;;;26.07;43.69;99988.31;5057686;28;20685;-72
2021/08/07 10:50:25;;;;;;;4.30;3.90;;;;;;;26.54;43.61;99986.03;5061361;28;20199;-71
2021/08/07 10:53:03;;;;;;;5.07;3.77;;;;;;;27.79;40.31;99982.47;5069489;28;20463;-71
2021/08/07 10:55:50;;;;;;;4.50;3.80;;;;;;;25.45;44.98;99987.03;5075063;28;20428;-72
2021/08/07 10:58:42;;;;;;;5.90;3.93;;;;;;;26.71;42.47;99984.88;5070186;28;20686;-72
2021/08/07 11:01:24;;;;;;;4.93;4.43;;;;;;;27.31;41.82;99985.97;5049799;28;20459;-74
2021/08/07 11:04:02;;;;;;;4.67;3.73;;;;;;;27.36;41.06;99978.50;5066252;28;20459;-76
2021/08/07 11:06:43;;;;;;;4.60;4.20;;;;;;;27.43;41.30;99981.56;5064142;28;20454;-70
2021/08/07 11:09:28;;;;;;;4.80;4.27;;;;;;;27.26;40.74;99973.88;5067414;28;20459;-70
2021/08/07 11:12:05;;;;;;;5.50;4.53;;;;;;;26.20;43.21;99967.00;5059283;28;20709;-70
2021/08/07 11:14:33;;;;;;;4.30;3.90;;;;;;;25.74;43.86;99967.38;5057910;28;20431;-67
2021/08/07 11:17:05;;;;;;;5.57;3.83;;;;;;;25.65;45.47;99966.16;5056416;28;20416;-74
2021/08/07 11:19:59;;;;;;;5.13;4.70;;;;;;;26.05;43.41;99961.72;5066304;28;20455;-75
2021/08/07 11:22:37;;;;;;;5.00;4.53;;;;;;;25.70;44.40;99967.56;5077567;28;20407;-73
2021/08/07 11:25:09;;;;;;;5.23;4.00;;;;;;;24.80;47.02;99968.88;5077512;28;20415;-72